• Join FlightAware (Why Join?)
  • Login
  • US Flag 
11:26PM EST


 

Airport Tracker/Info


-or-


 

Live Flight TrackerFlight Track Log ✈ CPZ5830 ✈ 04-Sep-2013 ✈ KLAX - KSFO

Flight Track Log - Related Links

Times and Time Zones

All times are in EDT time to prevent confusion due to time zone crossing. See the CPZ5830 flight status page for this flight to view local times or setup timezone preferences in your user account.

Time Position Orientation Groundspeed Altitude Reporting Facility
EDT Latitude Longitude Course Direction KTS MPH feet Rate Location/Type
10:20AM 33.9500 -118.4333 287° West 159 183 1,100  Level Southern California TRACON
10:21AM 33.9375 -118.5250 261° West 212 244 3,300 1,920 Climbing Los Angeles Center
10:22AM 33.9317 -118.5986 265° West 255 293 5,600 2,940 Climbing Los Angeles Center
10:23AM 34.0380 -118.7960 285° West  Level FlightAware Approximate
10:23AM 33.9244 -118.7150 266° West 282 325 9,400  Level Los Angeles Center
10:24AM 34.0674 -118.8934 296° West  Level FlightAware Approximate
10:24AM 33.9208 -118.8189 268° West 306 352 11,200  Level Los Angeles Center
10:25AM 34.0976 -118.9906 287° West  Level FlightAware Approximate
10:25AM 33.9206 -118.9369 270° West 353 406 13,600  Level Los Angeles Center
10:27AM 33.9803 -119.0397 305° West 382 440 16,000 1,920 Climbing Los Angeles Center
10:28AM 34.0386 -119.1175 312° West 390 449 17,600 2,040 Climbing Los Angeles Center
10:29AM 34.1272 -119.2400 311° West 403 464 20,200 2,160 Climbing Los Angeles Center
10:30AM 34.2014 -119.3442 311° West 409 471 22,100 1,860 Climbing Los Angeles Center
10:31AM 34.2925 -119.4714 311° West 417 480 24,100 1,620 Climbing Los Angeles Center
10:32AM 34.3714 -119.5811 311° West 429 494 25,500 1,260 Climbing Los Angeles Center
10:33AM 34.4519 -119.6947 311° West 442 509 26,800 1,260 Climbing Los Angeles Center
10:34AM 34.5478 -119.8172 314° West 450 518 28,200 1,260 Climbing Los Angeles Center
10:35AM 34.6461 -119.9197 319° Northwest 466 536 29,400 840 Climbing Los Angeles Center
10:36AM 34.7417 -120.0244 318° Northwest 463 533 30,000 240 Climbing Los Angeles Center
10:37AM 34.8339 -120.1242 318° Northwest 469 540 30,000  Level Los Angeles Center
10:38AM 34.9294 -120.2300 318° Northwest 469 540 30,000  Level Los Angeles Center
10:39AM 35.0439 -120.3567 318° Northwest 469 540 30,000  Level Los Angeles Center
10:40AM 35.1386 -120.4622 318° Northwest 466 536 30,000  Level Los Angeles Center
10:41AM 35.2344 -120.5675 318° Northwest 469 540 30,000  Level Los Angeles Center
10:42AM 35.3306 -120.6750 318° Northwest 472 543 30,000  Level Los Angeles Center
10:43AM 35.4356 -120.7700 324° Northwest 470 541 30,000  Level Los Angeles Center
10:44AM 35.5411 -120.8639 324° Northwest 468 539 30,000  Level Los Angeles Center
10:45AM 35.6639 -120.9747 324° Northwest 468 539 30,000  Level Los Angeles Center
10:46AM 35.7289 -121.0317 325° Northwest 469 540 30,000  Level Oakland Center
10:47AM 35.8342 -121.1258 324° Northwest 467 537 30,000  Level Oakland Center
10:48AM 35.9394 -121.2200 324° Northwest 467 537 30,000  Level Oakland Center
10:49AM 36.0439 -121.3147 324° Northwest 467 537 30,000  Level Oakland Center
10:50AM 36.1489 -121.4117 323° Northwest 468 539 30,000  Level Oakland Center
10:51AM 36.2536 -121.5064 324° Northwest 467 537 30,000 -1,080 Level Oakland Center
10:52AM 36.3586 -121.5992 325° Northwest 464 534 27,800 -2,400 Descending Oakland Center
10:53AM 36.4583 -121.6936 323° Northwest 455 524 25,200 -2,760 Descending Oakland Center
10:53AM 36.5333 -121.7667 322° Northwest 437 503 23,100 -2,700 Descending Northern Cal TRACON
10:54AM 36.6333 -121.8500 326° Northwest 415 478 20,600 -2,400 Descending Northern Cal TRACON
10:55AM 36.7167 -121.9333 321° Northwest 401 461 18,300 -2,340 Descending Northern Cal TRACON
10:56AM 36.8333 -121.9833 341° North 406 467 16,000 -2,400 Descending Northern Cal TRACON
10:57AM 36.9333 -122.0167 345° North 394 453 13,800 -2,340 Descending Northern Cal TRACON
10:58AM 37.0167 -122.0667 334° Northwest 377 434 11,600 -1,920 Descending Northern Cal TRACON
10:59AM 37.0344 -122.1164 294° West 370 426 11,000 -1,260 Descending Oakland Center
11:00AM 37.0803 -122.2100 302° West 332 382 9,700 -1,260 Descending Oakland Center
11:01AM 37.1528 -122.2606 331° Northwest 305 351 8,500 -900 Descending Oakland Center
11:02AM 37.2169 -122.3069 330° Northwest 277 319 7,900 -780 Descending Oakland Center
11:03AM 37.2869 -122.3233 349° North 260 299 7,000 -780 Descending Oakland Center
11:04AM 37.3475 -122.2728 34° Northeast 236 272 6,400 -840 Descending Oakland Center
11:05AM 37.3839 -122.2131 53° Northeast 221 254 5,400 -960 Descending Oakland Center
11:06AM 37.4186 -122.1556 53° Northeast 210 242 4,500 -720 Descending Oakland Center
11:07AM 37.4506 -122.1011 54° Northeast 200 230 4,000 -300 Descending Oakland Center
11:08AM 37.4992 -122.1136 348° North 195 224 4,000 -300 Level Oakland Center
11:09AM 37.5303 -122.1603 310° West 188 216 3,400 -720 Descending Oakland Center
11:10AM 37.5500 -122.2078 298° West 167 192 2,600 -780 Descending Oakland Center
11:11AM 37.5689 -122.2528 298° West 154 177 1,900 -780 Descending Oakland Center
11:12AM 37.5878 -122.2967 299° West 147 169 1,100 -720 Descending Oakland Center
11:13AM 37.6025 -122.3317 298° West 131 151 500 -600 Descending Oakland Center